Time;durP1;ratioP1;P1;durP2;ratioP2;P2;SDS_P1;SDS_P2;PMS_P1;PMS_P2;Temp;Humidity;BMP_temperature;BMP_pressure;BME280_temperature;BME280_humidity;BME280_pressure;Samples;Min_cycle;Max_cycle;Signal;HPM_P1;HPM_P2
2021/12/16 07:52:50;;;;;;;0.00;0.00;;;;;;;;;;5045000;27;2172749;-72
2021/12/16 07:55:18;;;;;;;0.00;0.00;;;;;;;;;;5107890;27;20577;-70
2021/12/16 07:57:46;;;;;;;0.00;0.00;;;;;;;;;;5115561;27;20297;-72
2021/12/16 08:00:15;;;;;;;0.00;0.00;;;;;;;;;;5117068;27;20212;-72
2021/12/16 08:02:43;;;;;;;0.00;0.00;;;;;;;;;;5117182;28;20229;-74
2021/12/16 08:05:12;;;;;;;0.00;0.00;;;;;;;;;;5117388;28;20201;-71
2021/12/16 08:07:40;;;;;;;0.00;0.00;;;;;;;;;;5115696;28;20201;-73
2021/12/16 08:10:11;;;;;;;0.00;0.00;;;;;;;;;;5117246;27;20200;-72
2021/12/16 08:12:38;;;;;;;0.00;0.00;;;;;;;;;;5119146;28;20207;-72
2021/12/16 08:15:06;;;;;;;0.00;0.00;;;;;;;;;;5116242;28;20202;-69
2021/12/16 08:17:34;;;;;;;0.00;0.00;;;;;;;;;;5116043;27;20205;-73
2021/12/16 08:20:01;;;;;;;0.00;0.00;;;;;;;;;;5116094;27;20205;-72
2021/12/16 08:22:29;;;;;;;0.00;0.00;;;;;;;;;;5125301;28;20224;-73
2021/12/16 08:24:56;;;;;;;0.00;0.00;;;;;;;;;;5126569;27;20204;-72
2021/12/16 08:27:25;;;;;;;0.00;0.00;;;;;;;;;;5127184;28;20197;-73
2021/12/16 08:29:53;;;;;;;0.00;0.00;;;;;;;;;;5123647;28;20564;-71
2021/12/16 08:32:20;;;;;;;0.37;0.37;;;;;;;;;;5114308;28;20708;-73
2021/12/16 08:34:47;;;;;;;0.00;0.00;;;;;;;;;;5108292;27;20213;-72
2021/12/16 08:37:15;;;;;;;0.00;0.00;;;;;;;;;;5108210;28;20200;-71
2021/12/16 08:39:44;;;;;;;0.00;0.00;;;;;;;;;;5108280;28;20208;-72
2021/12/16 08:42:11;;;;;;;0.00;0.00;;;;;;;;;;5106855;28;20228;-72
2021/12/16 08:44:40;;;;;;;0.00;0.00;;;;;;;;;;5109221;28;20703;-73
2021/12/16 08:47:09;;;;;;;0.00;0.00;;;;;;;;;;5108221;27;20205;-72
2021/12/16 08:49:37;;;;;;;0.00;0.00;;;;;;;;;;5107928;28;20764;-73
2021/12/16 08:52:07;;;;;;;0.00;0.00;;;;;;;;;;5103954;28;20220;-73
2021/12/16 08:54:34;;;;;;;0.00;0.00;;;;;;;;;;5104953;27;20201;-69
2021/12/16 08:57:02;;;;;;;0.00;0.00;;;;;;;;;;5102531;28;21622;-72
2021/12/16 08:59:30;;;;;;;0.00;0.00;;;;;;;;;;5098966;28;21266;-69
2021/12/16 09:01:59;;;;;;;0.00;0.00;;;;;;;;;;5099847;28;20577;-70
2021/12/16 09:04:27;;;;;;;0.00;0.00;;;;;;;;;;5086812;27;20221;-70
2021/12/16 09:06:56;;;;;;;1.50;1.40;;;;;;;;;;5089436;28;20198;-69
2021/12/16 09:09:24;;;;;;;0.00;0.00;;;;;;;;;;5088493;28;20214;-73
2021/12/16 09:12:07;;;;;;;0.10;0.10;;;;;;;;;;5086295;28;20206;-74
2021/12/16 09:14:35;;;;;;;0.00;0.00;;;;;;;;;;5090412;28;20189;-75
2021/12/16 09:17:09;;;;;;;0.77;0.10;;;;;;;;;;5089813;28;20202;-75
2021/12/16 09:19:37;;;;;;;0.00;0.00;;;;;;;;;;5091033;28;20202;-72
2021/12/16 09:22:04;;;;;;;0.00;0.00;;;;;;;;;;5087527;28;20233;-76
2021/12/16 09:24:32;;;;;;;0.00;0.00;;;;;;;;;;5088140;28;20194;-76
2021/12/16 09:26:59;;;;;;;0.10;0.10;;;;;;;;;;5088071;28;20240;-74
2021/12/16 09:29:26;;;;;;;0.00;0.00;;;;;;;;;;5091997;28;20586;-74
2021/12/16 09:31:54;;;;;;;0.00;0.00;;;;;;;;;;5091604;27;20565;-73
2021/12/16 09:34:23;;;;;;;0.00;0.00;;;;;;;;;;5086654;28;20661;-70
2021/12/16 09:36:50;;;;;;;0.00;0.00;;;;;;;;;;5086858;28;20198;-72
2021/12/16 09:39:21;;;;;;;0.00;0.00;;;;;;;;;;5086401;28;20241;-73
2021/12/16 09:41:50;;;;;;;0.00;0.00;;;;;;;;;;5094342;28;20774;-72
2021/12/16 09:44:18;;;;;;;0.00;0.00;;;;;;;;;;5095168;28;20198;-69
2021/12/16 09:46:48;;;;;;;0.00;0.00;;;;;;;;;;5092394;28;20202;-70
2021/12/16 09:49:16;;;;;;;0.00;0.00;;;;;;;;;;5086970;28;20658;-75
2021/12/16 09:51:46;;;;;;;0.00;0.00;;;;;;;;;;5084290;28;20577;-75
2021/12/16 09:54:15;;;;;;;0.00;0.00;;;;;;;;;;5086055;28;20213;-73
2021/12/16 09:56:44;;;;;;;0.10;0.10;;;;;;;;;;5087545;28;20223;-70
2021/12/16 09:59:13;;;;;;;0.00;0.00;;;;;;;;;;5087340;28;20632;-69
2021/12/16 10:01:41;;;;;;;0.00;0.00;;;;;;;;;;5088863;28;20316;-73
2021/12/16 10:04:09;;;;;;;0.00;0.00;;;;;;;;;;5090143;28;20803;-69
2021/12/16 10:06:38;;;;;;;12.63;7.13;;;;;;;;;;5086819;28;20272;-69
2021/12/16 10:09:08;;;;;;;0.10;0.10;;;;;;;;;;5090111;28;21834;-70
2021/12/16 10:11:36;;;;;;;0.00;0.00;;;;;;;;;;5099124;28;20197;-70
2021/12/16 10:14:18;;;;;;;0.00;0.00;;;;;;;;;;5094568;28;20226;-71
2021/12/16 10:19:32;;;;;;;0.00;0.00;;;;;;;;;;5095337;28;20259;-71
2021/12/16 10:22:14;;;;;;;0.00;0.00;;;;;;;;;;5094219;28;20213;-71
2021/12/16 10:24:43;;;;;;;0.53;0.53;;;;;;;;;;5102549;28;20201;-71
2021/12/16 10:27:12;;;;;;;0.00;0.00;;;;;;;;;;5099063;28;20563;-72
2021/12/16 10:29:41;;;;;;;0.00;0.00;;;;;;;;;;5094189;28;20225;-70
2021/12/16 10:32:28;;;;;;;0.00;0.00;;;;;;;;;;5090737;28;20851;-71
2021/12/16 10:34:57;;;;;;;0.33;0.33;;;;;;;;;;5094168;28;20224;-70
2021/12/16 10:37:31;;;;;;;0.00;0.00;;;;;;;;;;5093067;28;20194;-71
2021/12/16 10:40:13;;;;;;;0.00;0.00;;;;;;;;;;5097992;28;20213;-71
2021/12/16 10:42:48;;;;;;;0.00;0.00;;;;;;;;;;5092303;28;20202;-71
2021/12/16 10:45:26;;;;;;;0.00;0.00;;;;;;;;;;5097881;28;20288;-71
2021/12/16 10:48:12;;;;;;;0.60;0.60;;;;;;;;;;5094757;28;20236;-72
2021/12/16 10:51:02;;;;;;;0.07;0.07;;;;;;;;;;5095285;28;20654;-70
2021/12/16 10:53:48;;;;;;;0.00;0.00;;;;;;;;;;5097257;28;20621;-70
2021/12/16 10:56:17;;;;;;;0.10;0.10;;;;;;;;;;5098928;28;20206;-70
2021/12/16 10:58:55;;;;;;;0.00;0.00;;;;;;;;;;5094273;28;20204;-71
2021/12/16 11:01:43;;;;;;;0.57;0.57;;;;;;;;;;5095224;28;20197;-72
2021/12/16 11:04:12;;;;;;;1.90;1.80;;;;;;;;;;5094363;28;20217;-71
2021/12/16 11:06:41;;;;;;;0.23;0.23;;;;;;;;;;5097426;28;20201;-71
2021/12/16 11:09:28;;;;;;;0.03;0.03;;;;;;;;;;5098815;28;20206;-70
2021/12/16 11:12:06;;;;;;;0.10;0.10;;;;;;;;;;5097828;28;20375;-71
2021/12/16 11:14:35;;;;;;;0.23;0.23;;;;;;;;;;5097330;28;20192;-71
2021/12/16 11:17:05;;;;;;;0.00;0.00;;;;;;;;;;5100298;28;20194;-71
2021/12/16 11:19:39;;;;;;;0.50;0.50;;;;;;;;;;5098434;28;20197;-73
2021/12/16 11:22:07;;;;;;;0.10;0.10;;;;;;;;;;5098766;28;20296;-71
2021/12/16 11:24:34;;;;;;;0.03;0.03;;;;;;;;;;5098438;28;20197;-72
2021/12/16 11:27:20;;;;;;;0.00;0.00;;;;;;;;;;5098255;28;20197;-70
2021/12/16 11:29:48;;;;;;;7.53;1.23;;;;;;;;;;5097604;27;20678;-71
2021/12/16 11:32:31;;;;;;;0.00;0.00;;;;;;;;;;5098148;28;20221;-71
2021/12/16 11:34:58;;;;;;;0.00;0.00;;;;;;;;;;5096323;28;20242;-71
2021/12/16 11:37:25;;;;;;;0.30;0.30;;;;;;;;;;5099307;28;20201;-71
2021/12/16 11:39:53;;;;;;;0.03;0.03;;;;;;;;;;5096508;28;20311;-70
2021/12/16 11:42:27;;;;;;;0.20;0.20;;;;;;;;;;5099086;28;20201;-70
2021/12/16 11:44:57;;;;;;;0.77;0.77;;;;;;;;;;5095541;28;22445;-71
2021/12/16 11:47:26;;;;;;;0.00;0.00;;;;;;;;;;5095706;28;20201;-71
2021/12/16 11:49:55;;;;;;;0.00;0.00;;;;;;;;;;5095208;28;20210;-71
2021/12/16 11:52:24;;;;;;;0.10;0.10;;;;;;;;;;5094837;28;20232;-71
2021/12/16 11:54:54;;;;;;;0.10;0.10;;;;;;;;;;5098011;28;20202;-73
2021/12/16 11:57:24;;;;;;;0.00;0.00;;;;;;;;;;5096221;28;20757;-76
2021/12/16 11:59:54;;;;;;;0.00;0.00;;;;;;;;;;5101145;28;20198;-71
2021/12/16 12:02:28;;;;;;;0.30;0.30;;;;;;;;;;5088883;28;23172;-71
2021/12/16 12:05:13;;;;;;;5.87;5.50;;;;;;;;;;5090902;28;20213;-71
2021/12/16 12:07:41;;;;;;;0.00;0.00;;;;;;;;;;5098147;28;20692;-73
2021/12/16 12:10:09;;;;;;;0.10;0.10;;;;;;;;;;5095057;28;20256;-71
2021/12/16 12:12:44;;;;;;;0.20;0.20;;;;;;;;;;5097924;28;21172;-71
2021/12/16 12:15:14;;;;;;;0.00;0.00;;;;;;;;;;5096522;28;20661;-74
2021/12/16 12:17:50;;;;;;;0.10;0.10;;;;;;;;;;5100980;28;20304;-74
2021/12/16 12:20:18;;;;;;;0.10;0.10;;;;;;;;;;5093502;28;20250;-71
2021/12/16 12:22:50;;;;;;;0.00;0.00;;;;;;;;;;5091262;28;20210;-72
2021/12/16 12:25:18;;;;;;;0.00;0.00;;;;;;;;;;5095785;28;20199;-72
2021/12/16 12:27:45;;;;;;;0.00;0.00;;;;;;;;;;5097398;28;20598;-73
2021/12/16 12:30:13;;;;;;;0.00;0.00;;;;;;;;;;5096071;28;20198;-73
2021/12/16 12:32:42;;;;;;;3.30;0.87;;;;;;;;;;5099784;28;20233;-73
2021/12/16 12:35:12;;;;;;;0.00;0.00;;;;;;;;;;5095276;28;20197;-71
2021/12/16 12:37:41;;;;;;;0.00;0.00;;;;;;;;;;5097317;28;20209;-72
2021/12/16 12:40:10;;;;;;;0.87;0.60;;;;;;;;;;5100359;28;20237;-71
2021/12/16 12:42:38;;;;;;;1.80;1.20;;;;;;;;;;5100339;28;20212;-71
2021/12/16 12:45:06;;;;;;;0.00;0.00;;;;;;;;;;5098956;28;20218;-72
2021/12/16 12:47:35;;;;;;;0.00;0.00;;;;;;;;;;5101729;28;20181;-71
2021/12/16 12:50:15;;;;;;;0.00;0.00;;;;;;;;;;5100650;28;20580;-71
2021/12/16 12:52:45;;;;;;;0.97;0.97;;;;;;;;;;5097482;28;20237;-73
2021/12/16 12:55:15;;;;;;;0.00;0.00;;;;;;;;;;5101632;28;20271;-72
2021/12/16 12:57:43;;;;;;;0.00;0.00;;;;;;;;;;5099950;28;20194;-74
2021/12/16 13:00:11;;;;;;;0.30;0.30;;;;;;;;;;5100605;28;20662;-73
2021/12/16 13:02:40;;;;;;;0.00;0.00;;;;;;;;;;5101786;28;20205;-71
2021/12/16 13:05:09;;;;;;;0.23;0.23;;;;;;;;;;5102038;28;20222;-71
2021/12/16 13:07:40;;;;;;;0.00;0.00;;;;;;;;;;5099973;28;20208;-74
2021/12/16 13:10:11;;;;;;;0.33;0.33;;;;;;;;;;5101140;28;20594;-72
2021/12/16 13:12:42;;;;;;;0.57;0.57;;;;;;;;;;5101118;28;20229;-73
2021/12/16 13:15:21;;;;;;;0.47;0.47;;;;;;;;;;5097281;28;20251;-71
2021/12/16 13:23:39;;;;;;;0.73;0.50;;;;;;;;;;5099457;28;20300;-72
2021/12/16 13:26:26;;;;;;;0.13;0.13;;;;;;;;;;5100448;28;20238;-72
2021/12/16 13:29:02;;;;;;;0.00;0.00;;;;;;;;;;5099596;28;20197;-71
2021/12/16 13:31:34;;;;;;;0.00;0.00;;;;;;;;;;5099367;28;20201;-72
2021/12/16 13:34:03;;;;;;;0.00;0.00;;;;;;;;;;5100012;28;20221;-72
2021/12/16 13:36:40;;;;;;;0.00;0.00;;;;;;;;;;5100444;28;20204;-73
2021/12/16 13:39:12;;;;;;;0.00;0.00;;;;;;;;;;5099099;28;20201;-71
2021/12/16 13:41:53;;;;;;;0.00;0.00;;;;;;;;;;5101286;28;21525;-71
2021/12/16 13:44:36;;;;;;;0.33;0.33;;;;;;;;;;5099409;27;20205;-72
2021/12/16 13:47:10;;;;;;;0.00;0.00;;;;;;;;;;5097864;28;20213;-70
2021/12/16 13:58:20;;;;;;;0.00;0.00;;;;;;;;;;5092734;28;20213;-74
2021/12/16 14:01:05;;;;;;;0.00;0.00;;;;;;;;;;5102979;27;21437;-72
2021/12/16 14:03:44;;;;;;;0.00;0.00;;;;;;;;;;5105984;28;20233;-74
2021/12/16 14:06:15;;;;;;;0.00;0.00;;;;;;;;;;5105322;27;20212;-76
2021/12/16 14:08:45;;;;;;;0.00;0.00;;;;;;;;;;5097819;28;20230;-73
2021/12/16 14:12:19;;;;;;;0.00;0.00;;;;;;;;;;5102051;28;20202;-75
2021/12/16 14:14:51;;;;;;;0.00;0.00;;;;;;;;;;5092185;28;20318;-73
2021/12/16 14:17:43;;;;;;;0.00;0.00;;;;;;;;;;5090920;27;20276;-71
2021/12/16 14:23:08;;;;;;;0.00;0.00;;;;;;;;;;5093328;28;20687;-77
2021/12/16 14:25:42;;;;;;;0.00;0.00;;;;;;;;;;5092213;28;20204;-74
2021/12/16 14:31:28;;;;;;;0.00;0.00;;;;;;;;;;5090980;27;20576;-75
2021/12/16 14:39:46;;;;;;;0.10;0.10;;;;;;;;;;5089927;28;20233;-70
2021/12/16 14:42:29;;;;;;;0.00;0.00;;;;;;;;;;5090017;28;20391;-67
2021/12/16 14:50:40;;;;;;;0.00;0.00;;;;;;;;;;5090719;28;20193;-71
2021/12/16 14:53:18;;;;;;;0.00;0.00;;;;;;;;;;5090917;28;20221;-73
2021/12/16 14:55:47;;;;;;;0.00;0.00;;;;;;;;;;5091675;28;20739;-76
2021/12/16 14:58:14;;;;;;;0.00;0.00;;;;;;;;;;5093048;28;20689;-76
2021/12/16 15:00:47;;;;;;;0.00;0.00;;;;;;;;;;5090540;28;20205;-72
2021/12/16 15:03:17;;;;;;;0.00;0.00;;;;;;;;;;5098947;28;20251;-71
2021/12/16 15:05:47;;;;;;;0.00;0.00;;;;;;;;;;5092341;28;20209;-72
2021/12/16 15:08:19;;;;;;;0.10;0.10;;;;;;;;;;5092453;28;20209;-71
2021/12/16 15:10:47;;;;;;;0.00;0.00;;;;;;;;;;5092452;28;21332;-77
2021/12/16 15:13:21;;;;;;;0.00;0.00;;;;;;;;;;5095664;28;20359;-72
2021/12/16 15:16:09;;;;;;;0.00;0.00;;;;;;;;;;5092503;28;20189;-73
2021/12/16 15:38:31;;;;;;;0.00;0.00;;;;;;;;;;5098816;28;20246;-74
2021/12/16 15:43:45;;;;;;;0.00;0.00;;;;;;;;;;5104079;28;20194;-74
2021/12/16 15:46:13;;;;;;;0.00;0.00;;;;;;;;;;5109097;28;20570;-75
2021/12/16 15:48:46;;;;;;;0.00;0.00;;;;;;;;;;5105896;28;20201;-74
2021/12/16 15:51:14;;;;;;;0.00;0.00;;;;;;;;;;5107350;28;20225;-74
2021/12/16 15:53:43;;;;;;;0.00;0.00;;;;;;;;;;5107125;28;20222;-74
2021/12/16 15:56:12;;;;;;;0.00;0.00;;;;;;;;;;5108674;28;20628;-72
2021/12/16 15:58:41;;;;;;;0.00;0.00;;;;;;;;;;5103893;28;20288;-73
2021/12/16 16:01:11;;;;;;;0.00;0.00;;;;;;;;;;5102451;28;20201;-74
2021/12/16 16:03:39;;;;;;;0.00;0.00;;;;;;;;;;5102936;28;20650;-73
2021/12/16 16:06:09;;;;;;;0.00;0.00;;;;;;;;;;5101224;28;20215;-72
2021/12/16 16:08:40;;;;;;;0.00;0.00;;;;;;;;;;5102960;28;20212;-74
2021/12/16 16:11:09;;;;;;;0.00;0.00;;;;;;;;;;5106763;28;20252;-74
2021/12/16 16:13:41;;;;;;;0.00;0.00;;;;;;;;;;5110865;28;20260;-71
2021/12/16 16:16:09;;;;;;;0.00;0.00;;;;;;;;;;5106739;28;20193;-72
2021/12/16 16:18:40;;;;;;;0.00;0.00;;;;;;;;;;5112487;28;20228;-71
2021/12/16 16:21:12;;;;;;;0.00;0.00;;;;;;;;;;5110222;28;20208;-71
2021/12/16 16:23:40;;;;;;;0.00;0.00;;;;;;;;;;5108165;28;20297;-72
2021/12/16 16:26:10;;;;;;;0.00;0.00;;;;;;;;;;5110024;28;20201;-69
2021/12/16 16:28:38;;;;;;;0.00;0.00;;;;;;;;;;5102883;28;20202;-75
2021/12/16 16:31:08;;;;;;;0.00;0.00;;;;;;;;;;5107998;27;20658;-74
2021/12/16 16:33:36;;;;;;;0.00;0.00;;;;;;;;;;5103040;28;20221;-77
2021/12/16 16:36:06;;;;;;;0.00;0.00;;;;;;;;;;5105625;28;20208;-75
2021/12/16 16:38:37;;;;;;;0.00;0.00;;;;;;;;;;5104511;27;20202;-73
2021/12/16 16:41:06;;;;;;;0.00;0.00;;;;;;;;;;5097940;28;20212;-72
2021/12/16 16:43:34;;;;;;;0.00;0.00;;;;;;;;;;5100780;28;20201;-75
2021/12/16 16:46:04;;;;;;;0.00;0.00;;;;;;;;;;5103041;27;20216;-75
2021/12/16 16:48:44;;;;;;;0.00;0.00;;;;;;;;;;5098127;27;20690;-75
2021/12/16 16:51:13;;;;;;;0.00;0.00;;;;;;;;;;5100835;28;20513;-71
2021/12/16 16:53:50;;;;;;;0.33;0.33;;;;;;;;;;5096448;27;20624;-73
2021/12/16 16:56:33;;;;;;;0.00;0.00;;;;;;;;;;5098516;28;20201;-73
2021/12/16 16:59:01;;;;;;;0.00;0.00;;;;;;;;;;5093973;28;20197;-71
2021/12/16 17:01:29;;;;;;;0.00;0.00;;;;;;;;;;5098835;28;20209;-71
2021/12/16 17:03:56;;;;;;;0.00;0.00;;;;;;;;;;5096629;28;20579;-75
2021/12/16 17:06:26;;;;;;;0.00;0.00;;;;;;;;;;5091705;27;20286;-72
2021/12/16 17:08:56;;;;;;;0.00;0.00;;;;;;;;;;5098668;28;20223;-74
2021/12/16 17:11:25;;;;;;;0.00;0.00;;;;;;;;;;5093687;28;20216;-74
2021/12/16 17:13:59;;;;;;;0.00;0.00;;;;;;;;;;5096038;27;20291;-74
2021/12/16 17:19:13;;;;;;;0.00;0.00;;;;;;;;;;5095814;28;20240;-74
2021/12/16 17:21:46;;;;;;;0.00;0.00;;;;;;;;;;5096541;28;20573;-72
2021/12/16 17:24:16;;;;;;;0.00;0.00;;;;;;;;;;5101513;28;20546;-73
2021/12/16 17:26:44;;;;;;;0.00;0.00;;;;;;;;;;5106488;28;20202;-73
2021/12/16 17:29:14;;;;;;;0.00;0.00;;;;;;;;;;5101076;28;20206;-74
2021/12/16 17:31:44;;;;;;;0.30;0.30;;;;;;;;;;5090772;28;21376;-73
2021/12/16 17:34:13;;;;;;;0.00;0.00;;;;;;;;;;5095934;27;20218;-73
2021/12/16 17:36:44;;;;;;;0.00;0.00;;;;;;;;;;5098086;28;20546;-73
2021/12/16 17:39:12;;;;;;;0.40;0.40;;;;;;;;;;5095394;28;20620;-75
2021/12/16 17:41:41;;;;;;;0.00;0.00;;;;;;;;;;5094875;28;20288;-72
2021/12/16 17:44:16;;;;;;;0.00;0.00;;;;;;;;;;5093704;28;20209;-73
2021/12/16 17:46:44;;;;;;;0.00;0.00;;;;;;;;;;5091877;28;20198;-74
2021/12/16 17:49:12;;;;;;;0.00;0.00;;;;;;;;;;5094340;28;20195;-72
2021/12/16 17:51:43;;;;;;;0.00;0.00;;;;;;;;;;5093191;27;20543;-74
2021/12/16 17:54:12;;;;;;;0.00;0.00;;;;;;;;;;5087969;28;20246;-71
2021/12/16 17:56:40;;;;;;;0.00;0.00;;;;;;;;;;5095760;28;20289;-72
2021/12/16 17:59:10;;;;;;;0.00;0.00;;;;;;;;;;5093526;28;23086;-71
2021/12/16 18:01:42;;;;;;;0.00;0.00;;;;;;;;;;5092510;28;20211;-75
2021/12/16 18:04:14;;;;;;;0.10;0.10;;;;;;;;;;5095859;28;20205;-73
2021/12/16 18:06:43;;;;;;;0.00;0.00;;;;;;;;;;5094598;28;20202;-75
2021/12/16 18:09:12;;;;;;;0.00;0.00;;;;;;;;;;5095249;28;20200;-72
2021/12/16 18:11:44;;;;;;;0.00;0.00;;;;;;;;;;5092379;28;20671;-72
2021/12/16 18:14:15;;;;;;;0.00;0.00;;;;;;;;;;5098232;28;20244;-75
2021/12/16 18:16:44;;;;;;;0.00;0.00;;;;;;;;;;5095340;28;20202;-75
2021/12/16 18:19:13;;;;;;;0.00;0.00;;;;;;;;;;5094422;28;20674;-75
2021/12/16 18:21:42;;;;;;;0.00;0.00;;;;;;;;;;5103462;28;20194;-75
2021/12/16 18:24:10;;;;;;;0.00;0.00;;;;;;;;;;5095562;28;20213;-75
2021/12/16 18:26:39;;;;;;;0.00;0.00;;;;;;;;;;5093417;28;20206;-74
2021/12/16 18:29:08;;;;;;;0.00;0.00;;;;;;;;;;5092235;28;20198;-73
2021/12/16 18:31:41;;;;;;;0.00;0.00;;;;;;;;;;5093595;27;20205;-74
2021/12/16 18:34:14;;;;;;;0.00;0.00;;;;;;;;;;5091737;28;20300;-73
2021/12/16 18:36:42;;;;;;;0.00;0.00;;;;;;;;;;5093161;28;20197;-75
2021/12/16 18:39:12;;;;;;;0.00;0.00;;;;;;;;;;5094779;28;20205;-72
2021/12/16 18:41:42;;;;;;;0.00;0.00;;;;;;;;;;5090954;27;20219;-72
2021/12/16 18:44:10;;;;;;;0.00;0.00;;;;;;;;;;5092677;28;20573;-75
2021/12/16 18:46:40;;;;;;;0.00;0.00;;;;;;;;;;5096309;27;20201;-75
2021/12/16 18:49:16;;;;;;;0.00;0.00;;;;;;;;;;5089967;28;21101;-74
2021/12/16 18:51:57;;;;;;;0.00;0.00;;;;;;;;;;5092671;28;20744;-75
2021/12/16 18:54:31;;;;;;;0.00;0.00;;;;;;;;;;5094737;27;20220;-75
2021/12/16 18:57:00;;;;;;;0.00;0.00;;;;;;;;;;5089912;28;20737;-72
2021/12/16 18:59:28;;;;;;;0.00;0.00;;;;;;;;;;5088675;28;20198;-73
2021/12/16 19:01:58;;;;;;;0.00;0.00;;;;;;;;;;5099704;28;20221;-73
2021/12/16 19:04:28;;;;;;;0.00;0.00;;;;;;;;;;5105906;28;20260;-77
2021/12/16 19:06:57;;;;;;;0.00;0.00;;;;;;;;;;5107034;28;20206;-74
2021/12/16 19:09:25;;;;;;;0.00;0.00;;;;;;;;;;5102184;28;20202;-76
2021/12/16 19:11:56;;;;;;;0.00;0.00;;;;;;;;;;5097406;27;20224;-74
2021/12/16 19:14:25;;;;;;;0.00;0.00;;;;;;;;;;5093852;28;20222;-75
2021/12/16 19:16:52;;;;;;;0.00;0.00;;;;;;;;;;5083879;28;20205;-74
2021/12/16 19:19:21;;;;;;;0.00;0.00;;;;;;;;;;5093751;28;20205;-72
2021/12/16 19:21:49;;;;;;;0.00;0.00;;;;;;;;;;5093403;28;20209;-74
2021/12/16 19:24:18;;;;;;;0.97;0.97;;;;;;;;;;5093785;28;20194;-73
2021/12/16 19:26:45;;;;;;;0.00;0.00;;;;;;;;;;5092416;28;20198;-74
2021/12/16 19:29:14;;;;;;;0.40;0.40;;;;;;;;;;5091037;28;20213;-73
2021/12/16 19:31:42;;;;;;;0.00;0.00;;;;;;;;;;5091747;28;20194;-75
2021/12/16 19:34:10;;;;;;;0.00;0.00;;;;;;;;;;5093140;28;20611;-71
2021/12/16 19:36:40;;;;;;;0.00;0.00;;;;;;;;;;5092765;28;20216;-71
2021/12/16 19:39:08;;;;;;;0.00;0.00;;;;;;;;;;5090692;28;20694;-72
2021/12/16 19:41:36;;;;;;;0.53;0.53;;;;;;;;;;5090528;28;20544;-73
2021/12/16 19:44:05;;;;;;;0.00;0.00;;;;;;;;;;5091507;28;20662;-73
2021/12/16 19:46:35;;;;;;;0.00;0.00;;;;;;;;;;5090245;28;20203;-72
2021/12/16 19:49:03;;;;;;;0.00;0.00;;;;;;;;;;5091959;28;20538;-73
2021/12/16 19:51:30;;;;;;;0.00;0.00;;;;;;;;;;5092750;28;20237;-71
2021/12/16 19:53:59;;;;;;;0.00;0.00;;;;;;;;;;5091130;28;20281;-72
2021/12/16 19:56:26;;;;;;;0.00;0.00;;;;;;;;;;5091356;28;20202;-72
2021/12/16 19:58:54;;;;;;;0.00;0.00;;;;;;;;;;5094277;28;20245;-71
2021/12/16 20:01:23;;;;;;;0.00;0.00;;;;;;;;;;5091597;28;20213;-73
2021/12/16 20:03:53;;;;;;;0.00;0.00;;;;;;;;;;5094408;28;20198;-73
2021/12/16 20:06:21;;;;;;;0.00;0.00;;;;;;;;;;5091787;28;20209;-72
2021/12/16 20:08:49;;;;;;;0.00;0.00;;;;;;;;;;5092114;28;20216;-71
2021/12/16 20:11:20;;;;;;;0.00;0.00;;;;;;;;;;5091635;28;20196;-72
2021/12/16 20:13:47;;;;;;;0.00;0.00;;;;;;;;;;5091731;28;20208;-73
2021/12/16 20:16:16;;;;;;;0.00;0.00;;;;;;;;;;5098469;28;20221;-72
2021/12/16 20:18:46;;;;;;;0.00;0.00;;;;;;;;;;5107622;28;20209;-74
2021/12/16 20:21:15;;;;;;;0.00;0.00;;;;;;;;;;5107525;28;20685;-74
2021/12/16 20:23:42;;;;;;;0.00;0.00;;;;;;;;;;5100478;28;20289;-72
2021/12/16 20:26:11;;;;;;;0.10;0.10;;;;;;;;;;5097687;28;20536;-73
2021/12/16 20:28:43;;;;;;;0.00;0.00;;;;;;;;;;5099605;28;20221;-71
2021/12/16 20:31:12;;;;;;;0.00;0.00;;;;;;;;;;5103549;28;20198;-73
2021/12/16 20:33:41;;;;;;;0.00;0.00;;;;;;;;;;5103523;28;20210;-72
2021/12/16 20:36:10;;;;;;;0.00;0.00;;;;;;;;;;5098823;28;20230;-73
2021/12/16 20:38:42;;;;;;;0.00;0.00;;;;;;;;;;5107165;28;20213;-76
2021/12/16 20:41:12;;;;;;;0.00;0.00;;;;;;;;;;5107389;28;20277;-73
2021/12/16 20:43:42;;;;;;;0.00;0.00;;;;;;;;;;5107810;28;20214;-72
2021/12/16 20:46:11;;;;;;;0.00;0.00;;;;;;;;;;5100853;28;20209;-74
2021/12/16 20:48:42;;;;;;;0.00;0.00;;;;;;;;;;5106637;28;20205;-72
2021/12/16 20:51:21;;;;;;;0.10;0.10;;;;;;;;;;5104382;28;20677;-74
2021/12/16 20:53:49;;;;;;;0.00;0.00;;;;;;;;;;5105808;28;20208;-73
2021/12/16 20:56:17;;;;;;;0.00;0.00;;;;;;;;;;5097141;28;20709;-73
2021/12/16 20:58:47;;;;;;;0.00;0.00;;;;;;;;;;5101913;28;20198;-74
2021/12/16 21:01:16;;;;;;;0.00;0.00;;;;;;;;;;5111135;27;20206;-74
2021/12/16 21:03:44;;;;;;;0.00;0.00;;;;;;;;;;5106450;28;20823;-74
2021/12/16 21:06:13;;;;;;;0.00;0.00;;;;;;;;;;5101822;27;20198;-74
2021/12/16 21:08:41;;;;;;;0.00;0.00;;;;;;;;;;5100369;28;20234;-73
2021/12/16 21:11:12;;;;;;;0.00;0.00;;;;;;;;;;5109708;28;20201;-73
2021/12/16 21:13:39;;;;;;;0.00;0.00;;;;;;;;;;5105847;28;20746;-73
2021/12/16 21:16:08;;;;;;;0.00;0.00;;;;;;;;;;5100213;27;20700;-73
2021/12/16 21:18:36;;;;;;;0.00;0.00;;;;;;;;;;5100864;27;20197;-70
2021/12/16 21:21:04;;;;;;;0.00;0.00;;;;;;;;;;5104454;28;20206;-73
2021/12/16 21:23:33;;;;;;;0.00;0.00;;;;;;;;;;5109498;28;20201;-73
2021/12/16 21:26:00;;;;;;;0.00;0.00;;;;;;;;;;5103469;28;20223;-72
2021/12/16 21:28:28;;;;;;;0.00;0.00;;;;;;;;;;5100785;28;20641;-71
2021/12/16 21:30:56;;;;;;;0.00;0.00;;;;;;;;;;5109833;28;20573;-73
2021/12/16 21:33:27;;;;;;;0.00;0.00;;;;;;;;;;5105354;28;20197;-73
2021/12/16 21:35:58;;;;;;;0.00;0.00;;;;;;;;;;5094339;28;20233;-73
2021/12/16 21:38:26;;;;;;;0.00;0.00;;;;;;;;;;5110067;28;20258;-73
2021/12/16 21:40:54;;;;;;;0.00;0.00;;;;;;;;;;5105889;28;20202;-73
2021/12/16 21:43:21;;;;;;;0.00;0.00;;;;;;;;;;5106269;28;20208;-73
2021/12/16 21:45:48;;;;;;;0.00;0.00;;;;;;;;;;5108921;27;20569;-71
2021/12/16 21:48:16;;;;;;;0.00;0.00;;;;;;;;;;5096852;28;20202;-72
2021/12/16 21:50:46;;;;;;;0.00;0.00;;;;;;;;;;5101975;28;20205;-71
2021/12/16 21:53:14;;;;;;;0.00;0.00;;;;;;;;;;5110862;27;20197;-74
2021/12/16 21:55:42;;;;;;;0.00;0.00;;;;;;;;;;5108320;28;20221;-72
2021/12/16 21:58:10;;;;;;;0.00;0.00;;;;;;;;;;5105484;28;20205;-70
2021/12/16 22:00:39;;;;;;;2.77;2.67;;;;;;;;;;5099378;28;20221;-72
2021/12/16 22:03:08;;;;;;;0.00;0.00;;;;;;;;;;5103308;28;20206;-72
2021/12/16 22:05:36;;;;;;;0.00;0.00;;;;;;;;;;5107420;28;20202;-73
2021/12/16 22:08:06;;;;;;;0.00;0.00;;;;;;;;;;5105298;27;20201;-73
2021/12/16 22:10:34;;;;;;;0.00;0.00;;;;;;;;;;5102164;28;20198;-73
2021/12/16 22:13:01;;;;;;;1.23;1.23;;;;;;;;;;5097081;28;20666;-72
2021/12/16 22:15:30;;;;;;;0.00;0.00;;;;;;;;;;5101561;28;20232;-73
2021/12/16 22:17:58;;;;;;;0.00;0.00;;;;;;;;;;5105581;28;20206;-73
2021/12/16 22:20:26;;;;;;;0.00;0.00;;;;;;;;;;5108221;28;20205;-74
2021/12/16 22:22:56;;;;;;;0.00;0.00;;;;;;;;;;5104723;28;20205;-74
2021/12/16 22:25:25;;;;;;;0.00;0.00;;;;;;;;;;5100601;28;20198;-74
2021/12/16 22:27:53;;;;;;;0.00;0.00;;;;;;;;;;5101367;28;20674;-73
2021/12/16 22:30:21;;;;;;;0.00;0.00;;;;;;;;;;5108590;28;20226;-73
2021/12/16 22:32:49;;;;;;;0.63;0.63;;;;;;;;;;5106395;28;20216;-73
2021/12/16 22:35:18;;;;;;;0.00;0.00;;;;;;;;;;5107597;28;20233;-73
2021/12/16 22:37:46;;;;;;;0.00;0.00;;;;;;;;;;5102392;28;20203;-74
2021/12/16 22:40:15;;;;;;;0.00;0.00;;;;;;;;;;5105902;28;20225;-76
2021/12/16 22:42:44;;;;;;;0.00;0.00;;;;;;;;;;5105403;28;20205;-76
2021/12/16 22:45:12;;;;;;;2.97;2.73;;;;;;;;;;5094149;28;20209;-74
2021/12/16 22:47:39;;;;;;;0.40;0.40;;;;;;;;;;5097327;28;20214;-73
2021/12/16 22:50:08;;;;;;;0.00;0.00;;;;;;;;;;5100802;28;20646;-76
2021/12/16 22:52:36;;;;;;;0.00;0.00;;;;;;;;;;5099224;28;20220;-74
2021/12/16 22:55:03;;;;;;;2.47;2.33;;;;;;;;;;5107579;28;20563;-75
2021/12/16 22:57:31;;;;;;;0.00;0.00;;;;;;;;;;5102418;27;20210;-74
2021/12/16 23:00:00;;;;;;;0.00;0.00;;;;;;;;;;5098963;27;20202;-75
2021/12/16 23:02:30;;;;;;;0.00;0.00;;;;;;;;;;5099635;28;20205;-75
2021/12/16 23:04:59;;;;;;;0.00;0.00;;;;;;;;;;5103441;28;20194;-74
2021/12/16 23:07:27;;;;;;;0.00;0.00;;;;;;;;;;5102848;28;20985;-75
2021/12/16 23:09:54;;;;;;;0.00;0.00;;;;;;;;;;5094265;27;20194;-73
2021/12/16 23:12:22;;;;;;;0.00;0.00;;;;;;;;;;5104314;28;20198;-74
2021/12/16 23:14:53;;;;;;;0.00;0.00;;;;;;;;;;5104574;28;20205;-73
2021/12/16 23:17:44;;;;;;;0.00;0.00;;;;;;;;;;5099669;28;20570;-73
2021/12/16 23:22:56;;;;;;;0.00;0.00;;;;;;;;;;5106881;27;20231;-74
2021/12/16 23:25:27;;;;;;;0.00;0.00;;;;;;;;;;5107647;28;20200;-74
2021/12/16 23:27:56;;;;;;;0.00;0.00;;;;;;;;;;5102725;28;20229;-74
2021/12/16 23:30:24;;;;;;;0.00;0.00;;;;;;;;;;5105044;28;20210;-74
2021/12/16 23:32:53;;;;;;;0.00;0.00;;;;;;;;;;5102323;27;20208;-75
2021/12/16 23:35:20;;;;;;;0.00;0.00;;;;;;;;;;5104189;28;20197;-73
2021/12/16 23:37:53;;;;;;;0.00;0.00;;;;;;;;;;5101518;28;20204;-73
2021/12/16 23:40:23;;;;;;;0.00;0.00;;;;;;;;;;5103075;28;20285;-74
2021/12/16 23:43:29;;;;;;;0.00;0.00;;;;;;;;;;5102940;28;20722;-73
2021/12/16 23:46:10;;;;;;;0.30;0.30;;;;;;;;;;5105743;28;20356;-72
2021/12/16 23:54:13;;;;;;;0.00;0.00;;;;;;;;;;5106998;28;20234;-74
2021/12/16 23:56:42;;;;;;;0.00;0.00;;;;;;;;;;5105378;28;20235;-73
2021/12/16 23:59:09;;;;;;;0.00;0.00;;;;;;;;;;5105779;28;20654;-74
